»·PEaware :: N420FE KSNA-KCRQ

N420FE :: KSNA-KCRQ

FLIGHT INFORMATION

Flight Status: Arrived
Operator: Privately registered:
United States
More flights under this callsign
Pilot: Julian G. (20224)
Aircraft: CESSNA 172 SKYHAWK
(C172)
More flights by this aircraft type
Origin: KSNA John Wayne-Orange Co
United States
Destination: KCRQ McClellan-Palomar
United States
More flights between these airports :: More routes between these airports
Route: +V23 OCN
File this flight plan on PilotEdge
Remarks: I-2
Altitude:
(Current/Filed)
5,000ft
Speed:
(Current/Filed)
120kts
Departed: 08-Oct-18 12:04 PM
Arrived: 08-Oct-18 12:45 PM
Distance/Time
Traveled:
1nm/0:41
Distance/Time
To Go:
Arrived

Flight Plot

Page will automatically refresh every two minutes.


Map Options




Map Legend


Flown Route
Filed Route
Departure Airport
Arrival Airport
Navaid (VOR, NDB)
Fix

Horizontal Profiles

Position Reports

Time Latitude Longitude Heading Altitude Ground
Speed
08-Oct-18 11:46 33.666148 -117.873432 244 60ft 0kts
08-Oct-18 11:47 33.666148 -117.873432 244 60ft 0kts
08-Oct-18 11:48 33.666148 -117.873432 244 60ft 0kts
08-Oct-18 11:49 33.666148 -117.873432 244 60ft 0kts
08-Oct-18 11:50 33.666148 -117.873432 244 60ft 0kts
08-Oct-18 11:51 33.666148 -117.873432 244 60ft 0kts
08-Oct-18 11:52 33.666148 -117.873432 244 60ft 0kts
08-Oct-18 11:53 33.666148 -117.873432 244 60ft 0kts
08-Oct-18 11:54 33.666148 -117.873432 244 60ft 0kts
08-Oct-18 11:55 33.666148 -117.873432 244 60ft 0kts
08-Oct-18 11:56 33.666148 -117.873432 244 60ft 0kts
08-Oct-18 11:57 33.666148 -117.873432 244 60ft 0kts
08-Oct-18 11:58 33.667290 -117.872821 37 60ft 13kts
08-Oct-18 11:59 33.670713 -117.869259 38 60ft 21kts
08-Oct-18 12:00 33.674941 -117.866535 24 60ft 18kts
08-Oct-18 12:01 33.679772 -117.863488 3 60ft 14kts
08-Oct-18 12:02 33.680002 -117.863719 297 60ft 0kts
08-Oct-18 12:03 33.680002 -117.863719 297 60ft 0kts
08-Oct-18 12:04 33.680002 -117.863719 297 60ft 0kts
08-Oct-18 12:05 33.679610 -117.864494 207 60ft 14kts
08-Oct-18 12:06 33.661138 -117.875133 186 677ft 86kts
08-Oct-18 12:07 33.636774 -117.878303 185 1597ft 90kts
08-Oct-18 12:08 33.611935 -117.881460 185 2477ft 91kts
08-Oct-18 12:09 33.586393 -117.884775 185 3272ft 94kts
08-Oct-18 12:10 33.560712 -117.888117 185 4064ft 93kts
08-Oct-18 12:11 33.533422 -117.891627 185 4665ft 103kts
08-Oct-18 12:12 33.507158 -117.882740 112 4964ft 119kts
08-Oct-18 12:13 33.494020 -117.845139 110 4962ft 120kts
08-Oct-18 12:14 33.481367 -117.808502 110 4963ft 120kts
08-Oct-18 12:15 33.468576 -117.771270 110 4963ft 121kts
08-Oct-18 12:16 33.455827 -117.733702 110 4963ft 122kts
08-Oct-18 12:17 33.443189 -117.695579 110 4963ft 123kts
08-Oct-18 12:18 33.430919 -117.657228 110 4963ft 124kts
08-Oct-18 12:19 33.409746 -117.625669 135 4963ft 123kts
08-Oct-18 12:20 33.390378 -117.600792 134 4963ft 122kts
08-Oct-18 12:21 33.363518 -117.565931 134 4963ft 122kts
08-Oct-18 12:22 33.340609 -117.536203 134 4963ft 122kts
08-Oct-18 12:23 33.321426 -117.511322 134 4963ft 122kts
08-Oct-18 12:24 33.294645 -117.476589 134 4963ft 122kts
08-Oct-18 12:25 33.275464 -117.451749 134 4963ft 122kts
08-Oct-18 12:26 33.245490 -117.421564 141 4961ft 122kts
08-Oct-18 12:27 33.244068 -117.388532 80 4962ft 125kts
08-Oct-18 12:28 33.249647 -117.347686 80 4961ft 125kts
08-Oct-18 12:29 33.256049 -117.301105 80 5000ft 123kts
08-Oct-18 12:30 33.260739 -117.267036 80 5004ft 125kts
08-Oct-18 12:31 33.266419 -117.225799 80 5003ft 127kts
08-Oct-18 12:32 33.272186 -117.184052 80 5002ft 127kts
08-Oct-18 12:33 33.277984 -117.142164 80 5000ft 128kts
08-Oct-18 12:34 33.283767 -117.100092 80 5001ft 128kts
08-Oct-18 12:35 33.271551 -117.066054 160 4750ft 127kts
08-Oct-18 12:36 33.239627 -117.050460 160 4507ft 120kts
08-Oct-18 12:37 33.206145 -117.034510 160 3850ft 126kts
08-Oct-18 12:38 33.174516 -117.019816 162 3413ft 112kts
08-Oct-18 12:39 33.148542 -117.022819 259 3487ft 98kts
08-Oct-18 12:40 33.152967 -117.056245 280 3513ft 106kts
08-Oct-18 12:41 33.158310 -117.091056 263 3474ft 109kts
08-Oct-18 12:42 33.152626 -117.128818 257 2863ft 119kts
08-Oct-18 12:43 33.146501 -117.167108 256 2195ft 113kts
08-Oct-18 12:44 33.140646 -117.203326 256 1559ft 112kts
08-Oct-18 12:45 33.135136 -117.237597 256 968ft 94kts
08-Oct-18 12:46 33.131319 -117.261919 255 544ft 68kts
08-Oct-18 12:47 33.128436 -117.278532 251 304ft 14kts
08-Oct-18 12:48 33.127790 -117.279660 225 304ft 1kts
08-Oct-18 12:49 33.127074 -117.281997 257 304ft 12kts
08-Oct-18 12:50 33.126368 -117.283087 1 304ft 0kts
08-Oct-18 12:51 33.126368 -117.283087 1 304ft 0kts
08-Oct-18 12:52 33.126368 -117.283087 1 304ft 0kts
08-Oct-18 12:53 33.126368 -117.283087 1 304ft 0kts
08-Oct-18 12:54 33.126368 -117.283087 1 304ft 0kts
08-Oct-18 12:55 33.126368 -117.283087 1 304ft 0kts
08-Oct-18 12:56 33.126368 -117.283087 1 304ft 0kts
08-Oct-18 12:57 33.126368 -117.283087 1 304ft 0kts
08-Oct-18 12:58 33.126368 -117.283087 1 304ft 0kts
08-Oct-18 12:59 33.126368 -117.283087 1 304ft 0kts
08-Oct-18 13:00 33.126368 -117.283087 1 304ft 0kts
08-Oct-18 13:01 33.666148 -117.873432 244 60ft 0kts

Navigation Log

Ident Type
1. KSNA Airport
2. OCN Navaid
3. KCRQ Airport